Time;durP1;ratioP1;P1;durP2;ratioP2;P2;SDS_P1;SDS_P2;PMS_P1;PMS_P2;Temp;Humidity;BMP_temperature;BMP_pressure;BME280_temperature;BME280_humidity;BME280_pressure;Samples;Min_cycle;Max_cycle;Signal;HPM_P1;HPM_P2
2021/05/28 00:00:14;;;;;;;11.05;4.50;;;;;;;;;;5084771;28;20036;-69
2021/05/28 00:02:40;;;;;;;16.58;5.00;;;;;;;;;;5083964;28;20593;-69
2021/05/28 00:05:06;;;;;;;11.27;4.40;;;;;;;;;;5085914;28;20472;-69
2021/05/28 00:07:32;;;;;;;12.88;4.97;;;;;;;;;;5083344;28;20025;-69
2021/05/28 00:09:58;;;;;;;9.00;4.15;;;;;;;;;;5088296;28;20024;-69
2021/05/28 00:12:24;;;;;;;12.60;4.60;;;;;;;;;;5067678;28;20028;-69
2021/05/28 00:14:51;;;;;;;14.30;4.97;;;;;;;;;;5079200;28;20025;-69
2021/05/28 00:17:17;;;;;;;13.32;4.22;;;;;;;;;;5066410;28;20027;-69
2021/05/28 00:19:43;;;;;;;10.15;3.90;;;;;;;;;;5079153;28;20110;-69
2021/05/28 00:22:09;;;;;;;11.40;4.57;;;;;;;;;;5081448;28;20028;-70
2021/05/28 00:24:35;;;;;;;12.00;4.93;;;;;;;;;;5082907;28;20031;-69
2021/05/28 00:27:01;;;;;;;14.90;4.15;;;;;;;;;;5084468;28;20046;-69
2021/05/28 00:29:27;;;;;;;11.73;4.72;;;;;;;;;;5082712;28;20070;-69
2021/05/28 00:31:53;;;;;;;10.43;3.70;;;;;;;;;;5079251;28;20081;-69
2021/05/28 00:34:19;;;;;;;15.45;4.20;;;;;;;;;;5069807;28;20135;-70
2021/05/28 00:36:45;;;;;;;8.85;4.10;;;;;;;;;;5082246;28;20048;-70
2021/05/28 00:39:11;;;;;;;14.02;4.75;;;;;;;;;;5085557;28;20028;-69
2021/05/28 00:41:37;;;;;;;16.33;4.38;;;;;;;;;;5084575;28;20043;-69
2021/05/28 00:44:03;;;;;;;13.77;4.85;;;;;;;;;;5082435;28;20073;-70
2021/05/28 00:46:30;;;;;;;12.82;5.53;;;;;;;;;;5079023;28;20045;-69
2021/05/28 00:48:56;;;;;;;12.93;4.32;;;;;;;;;;5082335;28;20025;-69
2021/05/28 00:51:22;;;;;;;10.45;4.32;;;;;;;;;;5085724;28;20031;-70
2021/05/28 00:53:49;;;;;;;18.70;6.78;;;;;;;;;;5081710;28;20029;-70
2021/05/28 00:56:16;;;;;;;12.70;6.55;;;;;;;;;;5080078;28;20027;-69
2021/05/28 00:58:42;;;;;;;16.88;6.38;;;;;;;;;;5082596;28;20498;-70
2021/05/28 01:01:09;;;;;;;15.77;6.50;;;;;;;;;;5081535;28;20024;-70
2021/05/28 01:03:35;;;;;;;17.08;6.53;;;;;;;;;;5084618;28;20038;-70
2021/05/28 01:06:01;;;;;;;14.98;6.82;;;;;;;;;;5063501;28;20042;-70
2021/05/28 01:08:27;;;;;;;13.65;6.38;;;;;;;;;;5081229;28;20017;-70
2021/05/28 01:10:54;;;;;;;11.32;5.78;;;;;;;;;;5064105;28;20013;-69
2021/05/28 01:13:20;;;;;;;12.88;5.50;;;;;;;;;;5085648;28;20024;-70
2021/05/28 01:15:46;;;;;;;14.73;7.25;;;;;;;;;;5084007;28;20032;-70
2021/05/28 01:18:12;;;;;;;14.82;6.80;;;;;;;;;;5080908;28;20142;-70
2021/05/28 01:20:38;;;;;;;14.15;5.75;;;;;;;;;;5082963;28;20032;-70
2021/05/28 01:23:05;;;;;;;14.00;4.93;;;;;;;;;;5086805;28;20024;-69
2021/05/28 01:25:31;;;;;;;11.95;6.13;;;;;;;;;;5071234;28;20606;-70
2021/05/28 01:27:57;;;;;;;13.30;6.82;;;;;;;;;;5085723;28;20078;-70
2021/05/28 01:30:24;;;;;;;13.27;4.88;;;;;;;;;;5081819;28;20035;-70
2021/05/28 01:32:51;;;;;;;10.73;4.85;;;;;;;;;;5063073;28;20065;-70
2021/05/28 01:35:17;;;;;;;13.40;4.90;;;;;;;;;;5085249;28;20516;-69
2021/05/28 01:37:44;;;;;;;14.60;4.82;;;;;;;;;;5080781;28;20024;-69
2021/05/28 01:40:10;;;;;;;14.48;5.00;;;;;;;;;;5065322;28;20024;-69
2021/05/28 01:42:36;;;;;;;12.15;4.47;;;;;;;;;;5081164;28;20047;-70
2021/05/28 01:45:04;;;;;;;12.18;5.38;;;;;;;;;;5087083;28;20024;-69
2021/05/28 01:47:31;;;;;;;16.48;5.40;;;;;;;;;;5089860;28;20048;-69
2021/05/28 01:49:57;;;;;;;13.82;4.53;;;;;;;;;;5088036;28;20069;-70
2021/05/28 01:52:24;;;;;;;12.07;5.18;;;;;;;;;;5083077;28;20020;-69
2021/05/28 01:54:50;;;;;;;10.57;5.18;;;;;;;;;;5080862;28;20608;-69
2021/05/28 01:57:16;;;;;;;11.77;4.95;;;;;;;;;;5080794;28;20044;-70
2021/05/28 01:59:43;;;;;;;11.80;5.90;;;;;;;;;;5080612;28;20032;-70
2021/05/28 02:02:10;;;;;;;15.55;5.47;;;;;;;;;;5077864;28;20173;-70
2021/05/28 02:04:36;;;;;;;16.10;6.22;;;;;;;;;;5078453;28;20021;-69
2021/05/28 02:07:02;;;;;;;12.32;5.70;;;;;;;;;;5064024;28;20189;-70
2021/05/28 02:09:28;;;;;;;13.00;6.03;;;;;;;;;;5086132;28;20069;-70
2021/05/28 02:11:54;;;;;;;14.50;5.53;;;;;;;;;;5063878;28;20059;-70
2021/05/28 02:14:20;;;;;;;21.15;6.95;;;;;;;;;;5080716;28;20104;-70
2021/05/28 02:16:46;;;;;;;11.93;6.05;;;;;;;;;;5084174;28;20024;-70
2021/05/28 02:19:12;;;;;;;14.68;6.22;;;;;;;;;;5083576;28;20024;-70
2021/05/28 02:21:38;;;;;;;12.50;6.05;;;;;;;;;;5079449;28;20032;-70
2021/05/28 02:24:05;;;;;;;11.13;5.93;;;;;;;;;;5080760;28;20379;-70
2021/05/28 02:26:31;;;;;;;12.85;7.20;;;;;;;;;;5078998;28;20051;-70
2021/05/28 02:28:57;;;;;;;15.95;6.93;;;;;;;;;;5081000;28;20020;-70
2021/05/28 02:31:23;;;;;;;11.18;6.07;;;;;;;;;;5082681;28;20082;-70
2021/05/28 02:33:49;;;;;;;20.77;8.32;;;;;;;;;;5081918;28;20035;-70
2021/05/28 02:36:15;;;;;;;16.77;6.32;;;;;;;;;;5080333;28;20024;-69
2021/05/28 02:38:41;;;;;;;14.80;6.00;;;;;;;;;;5084022;28;20066;-70
2021/05/28 02:41:07;;;;;;;17.67;7.00;;;;;;;;;;5084320;28;20028;-69
2021/05/28 02:43:36;;;;;;;16.63;5.80;;;;;;;;;;5078792;28;20424;-70
2021/05/28 02:46:02;;;;;;;13.48;7.07;;;;;;;;;;5080652;28;20078;-69
2021/05/28 02:48:28;;;;;;;12.80;6.38;;;;;;;;;;5075038;28;20513;-70
2021/05/28 02:50:54;;;;;;;13.80;6.35;;;;;;;;;;5081967;28;20027;-70
2021/05/28 02:53:20;;;;;;;13.82;6.60;;;;;;;;;;5080796;28;20580;-70
2021/05/28 02:55:46;;;;;;;15.90;6.50;;;;;;;;;;5061390;28;20029;-70
2021/05/28 02:58:12;;;;;;;17.20;8.20;;;;;;;;;;5081757;28;20016;-70
2021/05/28 03:00:39;;;;;;;16.45;7.55;;;;;;;;;;5080660;28;20398;-70
2021/05/28 03:03:05;;;;;;;13.15;6.05;;;;;;;;;;5082660;28;20012;-70
2021/05/28 03:05:31;;;;;;;12.63;6.90;;;;;;;;;;5062022;28;20088;-70
2021/05/28 03:07:57;;;;;;;13.93;6.93;;;;;;;;;;5082913;28;20047;-70
2021/05/28 03:10:23;;;;;;;13.50;6.32;;;;;;;;;;5083513;28;20024;-70
2021/05/28 03:12:49;;;;;;;12.75;6.95;;;;;;;;;;5068303;28;20036;-70
2021/05/28 03:15:15;;;;;;;15.77;6.93;;;;;;;;;;5079975;28;20020;-70
2021/05/28 03:17:44;;;;;;;16.13;7.07;;;;;;;;;;5063176;28;20115;-70
2021/05/28 03:20:24;;;;;;;15.70;6.95;;;;;;;;;;5077769;28;20040;-70
2021/05/28 03:22:50;;;;;;;17.35;7.15;;;;;;;;;;5058506;28;20028;-70
2021/05/28 03:25:16;;;;;;;14.90;6.95;;;;;;;;;;5077633;28;20047;-70
2021/05/28 03:27:44;;;;;;;20.52;8.32;;;;;;;;;;5080136;28;20028;-70
2021/05/28 03:30:11;;;;;;;18.42;8.15;;;;;;;;;;5079609;28;20043;-70
2021/05/28 03:32:37;;;;;;;13.18;7.10;;;;;;;;;;5079826;28;20393;-70
2021/05/28 03:35:04;;;;;;;13.82;6.85;;;;;;;;;;5081302;28;20032;-70
2021/05/28 03:37:31;;;;;;;17.05;7.38;;;;;;;;;;5079256;28;20046;-70
2021/05/28 03:39:57;;;;;;;13.85;7.60;;;;;;;;;;5084279;28;20042;-70
2021/05/28 03:42:23;;;;;;;17.23;8.77;;;;;;;;;;5079114;28;20020;-70
2021/05/28 03:44:49;;;;;;;17.50;8.13;;;;;;;;;;5080316;28;20414;-70
2021/05/28 03:47:16;;;;;;;16.90;7.35;;;;;;;;;;5077518;28;20094;-70
2021/05/28 03:49:42;;;;;;;16.58;7.80;;;;;;;;;;5081215;28;20020;-70
2021/05/28 03:52:09;;;;;;;16.90;7.78;;;;;;;;;;5075164;28;20063;-70
2021/05/28 03:54:35;;;;;;;18.00;8.52;;;;;;;;;;5079768;28;20055;-70
2021/05/28 03:57:01;;;;;;;18.15;9.25;;;;;;;;;;5080804;28;20118;-70
2021/05/28 03:59:27;;;;;;;24.73;10.98;;;;;;;;;;5079002;28;20081;-70
2021/05/28 04:01:54;;;;;;;21.60;9.40;;;;;;;;;;5063912;28;20027;-70
2021/05/28 04:04:20;;;;;;;19.15;9.30;;;;;;;;;;5062004;28;20028;-70
2021/05/28 04:06:46;;;;;;;19.20;9.35;;;;;;;;;;5083724;28;20032;-70
2021/05/28 04:09:12;;;;;;;21.45;9.95;;;;;;;;;;5088686;28;20036;-70
2021/05/28 04:11:38;;;;;;;19.85;9.40;;;;;;;;;;5083518;28;20033;-70
2021/05/28 04:14:04;;;;;;;17.30;8.65;;;;;;;;;;5082637;28;20048;-70
2021/05/28 04:16:31;;;;;;;15.77;9.43;;;;;;;;;;5086216;28;20127;-70
2021/05/28 04:18:57;;;;;;;21.05;10.63;;;;;;;;;;5064965;28;20117;-70
2021/05/28 04:21:23;;;;;;;35.53;13.63;;;;;;;;;;5087026;28;20051;-70
2021/05/28 04:23:49;;;;;;;21.17;11.45;;;;;;;;;;5083899;28;20036;-71
2021/05/28 04:26:15;;;;;;;23.15;11.70;;;;;;;;;;5082098;28;20020;-70
2021/05/28 04:28:41;;;;;;;20.60;11.32;;;;;;;;;;5080828;28;20044;-70
2021/05/28 04:31:07;;;;;;;22.42;11.38;;;;;;;;;;5084814;28;20032;-70
2021/05/28 04:33:33;;;;;;;24.42;12.65;;;;;;;;;;5084000;28;20085;-70
2021/05/28 04:35:59;;;;;;;24.10;11.18;;;;;;;;;;5063383;28;20077;-70
2021/05/28 04:38:25;;;;;;;21.77;11.57;;;;;;;;;;5087572;28;20043;-70
2021/05/28 04:40:53;;;;;;;18.30;11.68;;;;;;;;;;5072545;28;20114;-70
2021/05/28 04:43:19;;;;;;;23.92;13.95;;;;;;;;;;5083954;28;20028;-70
2021/05/28 04:45:45;;;;;;;24.92;13.93;;;;;;;;;;5060599;28;20032;-70
2021/05/28 04:48:11;;;;;;;26.38;12.77;;;;;;;;;;5065938;28;20035;-70
2021/05/28 04:50:38;;;;;;;29.80;13.30;;;;;;;;;;5088476;28;20020;-70
2021/05/28 04:53:05;;;;;;;27.00;13.95;;;;;;;;;;5083831;28;20028;-70
2021/05/28 04:55:31;;;;;;;26.20;14.88;;;;;;;;;;5088798;28;20086;-70
2021/05/28 04:57:58;;;;;;;28.38;16.10;;;;;;;;;;5090564;28;20028;-70
2021/05/28 05:00:24;;;;;;;30.42;16.60;;;;;;;;;;5090604;28;20047;-70
2021/05/28 05:02:50;;;;;;;32.97;17.38;;;;;;;;;;5088685;28;20027;-70
2021/05/28 05:05:17;;;;;;;36.28;19.20;;;;;;;;;;5084807;28;20024;-70
2021/05/28 05:07:43;;;;;;;38.22;20.52;;;;;;;;;;5082775;28;20032;-70
2021/05/28 05:10:09;;;;;;;41.92;22.40;;;;;;;;;;5080721;28;20092;-70
2021/05/28 05:12:36;;;;;;;42.53;21.05;;;;;;;;;;5090584;28;20027;-70
2021/05/28 05:15:02;;;;;;;39.08;22.77;;;;;;;;;;5089757;28;20024;-70
2021/05/28 05:17:28;;;;;;;41.35;23.02;;;;;;;;;;5091221;28;20028;-70
2021/05/28 05:19:54;;;;;;;40.75;23.35;;;;;;;;;;5090638;28;20016;-70
2021/05/28 05:22:20;;;;;;;47.20;25.00;;;;;;;;;;5091256;28;20038;-70
2021/05/28 05:24:46;;;;;;;44.83;24.98;;;;;;;;;;5078618;28;20028;-70
2021/05/28 05:27:12;;;;;;;50.25;25.15;;;;;;;;;;5089299;28;20024;-70
2021/05/28 05:29:39;;;;;;;47.75;26.77;;;;;;;;;;5085560;28;20489;-70
2021/05/28 05:32:05;;;;;;;51.97;26.40;;;;;;;;;;5090955;28;20558;-70
2021/05/28 05:34:31;;;;;;;52.10;27.65;;;;;;;;;;5090197;28;20024;-70
2021/05/28 05:37:00;;;;;;;46.88;28.08;;;;;;;;;;5088561;28;20016;-70
2021/05/28 05:39:26;;;;;;;46.78;26.08;;;;;;;;;;5090991;28;20016;-70
2021/05/28 05:41:52;;;;;;;49.00;26.27;;;;;;;;;;5085401;28;20028;-70
2021/05/28 05:44:19;;;;;;;45.90;27.40;;;;;;;;;;5081699;28;20019;-70
2021/05/28 05:46:45;;;;;;;49.70;27.55;;;;;;;;;;5090797;28;20036;-70
2021/05/28 05:49:11;;;;;;;48.33;28.23;;;;;;;;;;5074966;28;20055;-70
2021/05/28 05:51:37;;;;;;;56.30;27.88;;;;;;;;;;5086427;28;20397;-71
2021/05/28 05:54:04;;;;;;;57.70;29.20;;;;;;;;;;5081426;28;20035;-70
2021/05/28 05:56:30;;;;;;;58.33;28.42;;;;;;;;;;5089562;28;20020;-70
2021/05/28 05:58:56;;;;;;;51.60;29.95;;;;;;;;;;5089654;28;20024;-69
2021/05/28 06:01:22;;;;;;;52.65;30.48;;;;;;;;;;5064996;28;20393;-70
2021/05/28 06:03:48;;;;;;;55.88;29.83;;;;;;;;;;5084953;28;20069;-70
2021/05/28 06:06:14;;;;;;;63.33;28.63;;;;;;;;;;5081028;28;20554;-70
2021/05/28 06:08:40;;;;;;;57.83;28.75;;;;;;;;;;5054170;28;20044;-70
2021/05/28 06:11:07;;;;;;;61.72;31.00;;;;;;;;;;5082008;28;20016;-70
2021/05/28 06:13:33;;;;;;;61.40;32.00;;;;;;;;;;5078994;28;20020;-70
2021/05/28 06:15:59;;;;;;;51.13;28.40;;;;;;;;;;5087928;28;20028;-69
2021/05/28 06:18:25;;;;;;;57.88;28.13;;;;;;;;;;5084023;28;20012;-70
2021/05/28 06:20:51;;;;;;;49.75;25.25;;;;;;;;;;5085310;28;20055;-70
2021/05/28 06:23:17;;;;;;;51.40;27.77;;;;;;;;;;5085535;28;20031;-70
2021/05/28 06:25:46;;;;;;;55.50;27.08;;;;;;;;;;5081634;28;20097;-70
2021/05/28 06:28:12;;;;;;;55.50;28.98;;;;;;;;;;5068000;28;20512;-70
2021/05/28 06:30:38;;;;;;;47.53;26.77;;;;;;;;;;5085434;28;20097;-69
2021/05/28 06:33:09;;;;;;;52.33;27.30;;;;;;;;;;5085541;28;20543;-69
2021/05/28 06:35:35;;;;;;;49.63;26.27;;;;;;;;;;5085703;28;20028;-70
2021/05/28 06:38:02;;;;;;;42.80;22.48;;;;;;;;;;5066279;28;20028;-71
2021/05/28 06:40:28;;;;;;;58.35;27.15;;;;;;;;;;5083656;28;20016;-69
2021/05/28 06:42:54;;;;;;;49.83;25.58;;;;;;;;;;5075841;28;20027;-70
2021/05/28 06:45:20;;;;;;;47.08;25.20;;;;;;;;;;5084253;28;20115;-69
2021/05/28 06:47:47;;;;;;;53.58;24.60;;;;;;;;;;5082687;28;20047;-70
2021/05/28 06:50:14;;;;;;;47.92;26.05;;;;;;;;;;5081258;28;20448;-70
2021/05/28 06:52:40;;;;;;;53.53;22.17;;;;;;;;;;5081862;28;20032;-69
2021/05/28 06:55:07;;;;;;;38.47;22.90;;;;;;;;;;5083274;28;20023;-70
2021/05/28 06:57:33;;;;;;;49.45;25.13;;;;;;;;;;5081423;28;20202;-68
2021/05/28 06:59:59;;;;;;;42.17;23.48;;;;;;;;;;5064611;28;20028;-69
2021/05/28 07:02:26;;;;;;;43.90;23.15;;;;;;;;;;5068059;28;20064;-69
2021/05/28 07:04:52;;;;;;;49.40;24.40;;;;;;;;;;5074015;28;20116;-70
2021/05/28 07:07:18;;;;;;;44.88;23.58;;;;;;;;;;5082606;28;20501;-71
2021/05/28 07:09:45;;;;;;;44.25;23.40;;;;;;;;;;5082548;28;20039;-70
2021/05/28 07:12:11;;;;;;;41.28;23.05;;;;;;;;;;5081009;28;20045;-69
2021/05/28 07:14:37;;;;;;;48.13;26.08;;;;;;;;;;5062273;28;20040;-68
2021/05/28 07:17:03;;;;;;;40.22;23.48;;;;;;;;;;5067762;28;20032;-67
2021/05/28 07:19:29;;;;;;;45.60;23.55;;;;;;;;;;5083002;28;20055;-68
2021/05/28 07:21:56;;;;;;;44.53;24.65;;;;;;;;;;5081510;28;20034;-68
2021/05/28 07:24:22;;;;;;;40.60;22.27;;;;;;;;;;5081524;28;20020;-69
2021/05/28 07:26:48;;;;;;;40.70;21.40;;;;;;;;;;5065266;28;20035;-68
2021/05/28 07:29:14;;;;;;;42.88;22.65;;;;;;;;;;5065589;28;20055;-68
2021/05/28 07:31:41;;;;;;;47.53;22.00;;;;;;;;;;5083524;28;20111;-68
2021/05/28 07:34:07;;;;;;;37.65;21.00;;;;;;;;;;5063035;28;20032;-68
2021/05/28 07:36:33;;;;;;;38.90;20.30;;;;;;;;;;5079193;28;20024;-68
2021/05/28 07:38:59;;;;;;;38.17;21.05;;;;;;;;;;5082205;28;20031;-68
2021/05/28 07:41:25;;;;;;;36.22;20.30;;;;;;;;;;5090158;28;20085;-69
2021/05/28 07:43:51;;;;;;;34.65;21.00;;;;;;;;;;5086131;28;20070;-69
2021/05/28 07:46:17;;;;;;;36.33;22.75;;;;;;;;;;5067422;28;20051;-68
2021/05/28 07:48:43;;;;;;;39.25;22.77;;;;;;;;;;5083778;28;20032;-69
2021/05/28 07:51:09;;;;;;;34.78;20.35;;;;;;;;;;5083452;28;20035;-68
2021/05/28 07:53:35;;;;;;;36.75;22.70;;;;;;;;;;5075962;28;20039;-69
2021/05/28 07:56:05;;;;;;;40.03;20.95;;;;;;;;;;5088994;28;20028;-68
2021/05/28 07:58:32;;;;;;;36.72;22.73;;;;;;;;;;5088949;28;20045;-68
2021/05/28 08:00:58;;;;;;;36.90;23.00;;;;;;;;;;5088500;28;20115;-71
2021/05/28 08:03:24;;;;;;;55.00;24.00;;;;;;;;;;5063262;28;20498;-68
2021/05/28 08:05:51;;;;;;;36.17;21.45;;;;;;;;;;5069650;28;20035;-69
2021/05/28 08:08:17;;;;;;;42.30;25.05;;;;;;;;;;5078296;28;20107;-69
2021/05/28 08:10:44;;;;;;;38.83;24.67;;;;;;;;;;5079671;28;20136;-67
2021/05/28 08:13:10;;;;;;;35.00;24.42;;;;;;;;;;5076303;28;20036;-68
2021/05/28 08:15:36;;;;;;;38.47;22.63;;;;;;;;;;5084960;28;20546;-68
2021/05/28 08:18:03;;;;;;;39.75;23.80;;;;;;;;;;5083722;28;20023;-69
2021/05/28 08:20:29;;;;;;;38.70;21.23;;;;;;;;;;5065539;28;20338;-69
2021/05/28 08:22:58;;;;;;;36.45;22.15;;;;;;;;;;5078329;28;20027;-67
2021/05/28 08:25:24;;;;;;;31.35;20.52;;;;;;;;;;5079811;28;20107;-69
2021/05/28 08:27:50;;;;;;;33.63;20.60;;;;;;;;;;5082039;28;20266;-68
2021/05/28 08:30:17;;;;;;;30.08;20.88;;;;;;;;;;5084739;28;20028;-68
2021/05/28 08:32:43;;;;;;;33.95;20.10;;;;;;;;;;5081478;28;20016;-68
2021/05/28 08:35:10;;;;;;;30.60;20.30;;;;;;;;;;5083250;28;20021;-68
2021/05/28 08:37:36;;;;;;;29.55;18.65;;;;;;;;;;5083909;28;20028;-67
2021/05/28 08:40:03;;;;;;;29.85;17.98;;;;;;;;;;5084291;28;20046;-68
2021/05/28 08:42:30;;;;;;;28.40;17.20;;;;;;;;;;5078919;28;20381;-68
2021/05/28 08:44:56;;;;;;;25.27;16.75;;;;;;;;;;5079808;28;20028;-68
2021/05/28 08:47:23;;;;;;;25.63;17.52;;;;;;;;;;5085013;28;20035;-67
2021/05/28 08:49:49;;;;;;;24.83;15.93;;;;;;;;;;5087551;28;20066;-68
2021/05/28 08:52:16;;;;;;;22.00;14.35;;;;;;;;;;5084009;28;20020;-67
2021/05/28 08:54:42;;;;;;;21.92;14.13;;;;;;;;;;5088359;28;20482;-70
2021/05/28 08:57:08;;;;;;;19.58;16.08;;;;;;;;;;5086023;28;20108;-67
2021/05/28 08:59:34;;;;;;;23.73;16.50;;;;;;;;;;5082497;28;20067;-69
2021/05/28 09:02:01;;;;;;;23.35;18.13;;;;;;;;;;5078642;28;20016;-68
2021/05/28 09:04:27;;;;;;;21.48;15.52;;;;;;;;;;5083976;28;20028;-68
2021/05/28 09:06:53;;;;;;;21.52;14.55;;;;;;;;;;5087375;28;20070;-68
2021/05/28 09:09:20;;;;;;;22.30;15.50;;;;;;;;;;5086314;28;20020;-69
2021/05/28 09:12:01;;;;;;;22.25;16.08;;;;;;;;;;5060969;28;20051;-69
2021/05/28 09:14:29;;;;;;;24.02;17.63;;;;;;;;;;5083321;28;20221;-68
2021/05/28 09:16:55;;;;;;;30.13;20.05;;;;;;;;;;5079204;28;20505;-68
2021/05/28 09:19:23;;;;;;;25.13;19.33;;;;;;;;;;5080887;28;20081;-68
2021/05/28 09:21:54;;;;;;;25.27;19.73;;;;;;;;;;5061334;28;20085;-68
2021/05/28 09:24:20;;;;;;;;;;;;;;;;;;5081733;28;20123;-67
2021/05/28 09:26:46;;;;;;;23.15;17.92;;;;;;;;;;5062535;28;20000;-68
2021/05/28 09:29:12;;;;;;;29.45;19.13;;;;;;;;;;5084120;28;20020;-69
2021/05/28 09:31:38;;;;;;;25.65;18.85;;;;;;;;;;5078005;28;20050;-68
2021/05/28 09:34:05;;;;;;;27.55;19.75;;;;;;;;;;5079067;28;20045;-67
2021/05/28 09:36:33;;;;;;;27.48;20.65;;;;;;;;;;5082750;28;20533;-67
2021/05/28 09:39:07;;;;;;;27.00;19.48;;;;;;;;;;5077998;28;20573;-68
2021/05/28 09:41:46;;;;;;;21.60;15.18;;;;;;;;;;5061692;28;20020;-68
2021/05/28 09:44:18;;;;;;;20.08;15.23;;;;;;;;;;5067367;28;20198;-67
2021/05/28 09:47:03;;;;;;;22.20;15.45;;;;;;;;;;5079506;28;20040;-67
2021/05/28 09:49:33;;;;;;;20.30;14.90;;;;;;;;;;5081081;28;20078;-67
2021/05/28 09:52:22;;;;;;;17.23;11.02;;;;;;;;;;5078972;28;20020;-68
2021/05/28 09:54:59;;;;;;;18.67;10.82;;;;;;;;;;5066007;28;20039;-67
2021/05/28 09:57:29;;;;;;;20.83;10.60;;;;;;;;;;5084333;28;20021;-67
2021/05/28 09:59:55;;;;;;;12.75;6.65;;;;;;;;;;5087464;28;20024;-70
2021/05/28 10:02:40;;;;;;;13.07;7.32;;;;;;;;;;5064364;28;20032;-67
2021/05/28 10:05:07;;;;;;;14.38;6.20;;;;;;;;;;5087039;28;20066;-68
2021/05/28 10:07:34;;;;;;;14.07;7.50;;;;;;;;;;5081129;28;20032;-68
2021/05/28 10:10:00;;;;;;;13.48;8.20;;;;;;;;;;5067694;28;20040;-67
2021/05/28 10:12:26;;;;;;;14.30;8.07;;;;;;;;;;5085537;28;20031;-67
2021/05/28 10:14:52;;;;;;;12.52;8.13;;;;;;;;;;5089084;28;20082;-67
2021/05/28 10:17:19;;;;;;;14.75;8.95;;;;;;;;;;5085811;28;20031;-67
2021/05/28 10:19:46;;;;;;;15.40;9.48;;;;;;;;;;5080459;28;20039;-68
2021/05/28 10:22:12;;;;;;;20.65;10.55;;;;;;;;;;5078778;28;20031;-68
2021/05/28 10:24:39;;;;;;;15.23;9.90;;;;;;;;;;5076617;28;20061;-68
2021/05/28 10:27:06;;;;;;;18.80;11.45;;;;;;;;;;5083338;28;20032;-67
2021/05/28 10:29:32;;;;;;;16.60;9.63;;;;;;;;;;5072607;28;20028;-67
2021/05/28 10:31:58;;;;;;;13.10;8.13;;;;;;;;;;5078481;28;20012;-68
2021/05/28 10:34:25;;;;;;;17.23;9.65;;;;;;;;;;5084575;28;20051;-68
2021/05/28 10:36:51;;;;;;;13.98;8.93;;;;;;;;;;5069542;28;20035;-67
2021/05/28 10:39:18;;;;;;;16.63;9.00;;;;;;;;;;5081277;28;20107;-68
2021/05/28 10:41:44;;;;;;;14.63;9.80;;;;;;;;;;5078972;28;20031;-68
2021/05/28 10:44:11;;;;;;;15.02;9.80;;;;;;;;;;5079113;28;20029;-67
2021/05/28 10:46:37;;;;;;;17.75;9.13;;;;;;;;;;5080365;28;20032;-67
2021/05/28 10:49:08;;;;;;;15.05;7.47;;;;;;;;;;5082999;28;20035;-68
2021/05/28 10:51:34;;;;;;;16.55;8.35;;;;;;;;;;5086128;28;20032;-67
2021/05/28 10:54:00;;;;;;;13.93;9.73;;;;;;;;;;5088207;28;20537;-68
2021/05/28 10:56:26;;;;;;;19.05;10.23;;;;;;;;;;5089928;28;20031;-67
2021/05/28 10:58:53;;;;;;;16.10;9.32;;;;;;;;;;5091315;28;20028;-68
2021/05/28 11:01:35;;;;;;;14.98;10.02;;;;;;;;;;5082334;28;20024;-67
2021/05/28 11:04:04;;;;;;;18.33;11.63;;;;;;;;;;5081397;28;20020;-67
2021/05/28 11:06:31;;;;;;;17.95;10.00;;;;;;;;;;5063055;28;20059;-67
2021/05/28 11:09:17;;;;;;;14.50;6.75;;;;;;;;;;5067189;28;20041;-67
2021/05/28 11:11:43;;;;;;;16.83;7.13;;;;;;;;;;5061564;28;20039;-67
2021/05/28 11:14:10;;;;;;;13.43;6.75;;;;;;;;;;5060807;28;20021;-67
2021/05/28 11:16:55;;;;;;;17.67;8.77;;;;;;;;;;5067061;28;20547;-67
2021/05/28 11:19:25;;;;;;;11.55;6.32;;;;;;;;;;5083571;28;20020;-67
2021/05/28 11:21:54;;;;;;;10.27;6.10;;;;;;;;;;5082699;28;20039;-68
2021/05/28 11:24:20;;;;;;;9.27;6.15;;;;;;;;;;5085868;28;20040;-67
2021/05/28 11:26:46;;;;;;;13.32;5.28;;;;;;;;;;5085291;28;20031;-67
2021/05/28 11:29:22;;;;;;;9.38;5.00;;;;;;;;;;5085257;28;20024;-71
2021/05/28 11:31:48;;;;;;;13.10;5.15;;;;;;;;;;5085756;28;20054;-67
2021/05/28 11:34:15;;;;;;;12.48;6.32;;;;;;;;;;5066844;28;20017;-67
2021/05/28 11:36:42;;;;;;;10.88;5.43;;;;;;;;;;5087708;28;20056;-66
2021/05/28 11:39:21;;;;;;;12.50;8.32;;;;;;;;;;5081817;28;20038;-67
2021/05/28 11:42:13;;;;;;;20.00;8.55;;;;;;;;;;5080944;28;20507;-67
2021/05/28 11:44:40;;;;;;;;;;;;;;;;;;5079149;28;20047;-67
2021/05/28 11:47:07;;;;;;;11.57;6.45;;;;;;;;;;5088607;28;19959;-66
2021/05/28 11:49:36;;;;;;;11.43;6.10;;;;;;;;;;5089712;28;20024;-67
2021/05/28 11:52:07;;;;;;;9.95;5.97;;;;;;;;;;5067626;28;20392;-67
2021/05/28 11:54:34;;;;;;;9.40;4.43;;;;;;;;;;5088250;28;20020;-67
2021/05/28 11:57:02;;;;;;;9.48;4.68;;;;;;;;;;5089137;28;20512;-66
2021/05/28 12:00:03;;;;;;;11.85;6.60;;;;;;;;;;5086338;28;20032;-67
2021/05/28 12:02:43;;;;;;;9.23;5.97;;;;;;;;;;5005479;28;20038;-68
2021/05/28 12:05:20;;;;;;;15.25;7.82;;;;;;;;;;5077152;28;20043;-67
2021/05/28 12:07:46;;;;;;;20.33;13.07;;;;;;;;;;5090987;28;20032;-67
2021/05/28 12:10:13;;;;;;;15.10;11.18;;;;;;;;;;5087595;28;20026;-67
2021/05/28 12:12:55;;;;;;;16.17;8.93;;;;;;;;;;5082809;28;20028;-67
2021/05/28 12:15:25;;;;;;;14.93;9.93;;;;;;;;;;5088252;28;20391;-68
2021/05/28 12:17:52;;;;;;;14.65;9.98;;;;;;;;;;5083939;28;20039;-68
2021/05/28 12:20:22;;;;;;;15.77;11.55;;;;;;;;;;5086235;28;20063;-67
2021/05/28 12:23:02;;;;;;;15.20;10.35;;;;;;;;;;5083133;28;20502;-67
2021/05/28 12:25:35;;;;;;;16.25;9.25;;;;;;;;;;5086138;28;20971;-68
2021/05/28 12:28:10;;;;;;;17.05;11.07;;;;;;;;;;5087571;28;20032;-67
2021/05/28 12:30:37;;;;;;;14.00;9.43;;;;;;;;;;5086368;28;20097;-70
2021/05/28 12:33:03;;;;;;;17.77;10.10;;;;;;;;;;5085668;28;20114;-67
2021/05/28 12:35:29;;;;;;;16.98;9.90;;;;;;;;;;5090389;28;20028;-67
2021/05/28 12:38:06;;;;;;;17.58;10.10;;;;;;;;;;5092018;28;20028;-66
2021/05/28 12:40:32;;;;;;;16.23;9.70;;;;;;;;;;5096984;28;20063;-66
2021/05/28 12:42:59;;;;;;;17.67;10.63;;;;;;;;;;5070169;28;20024;-68
2021/05/28 12:45:32;;;;;;;20.42;11.05;;;;;;;;;;5089407;28;20550;-66
2021/05/28 12:47:58;;;;;;;22.42;10.45;;;;;;;;;;5088727;28;20028;-66
2021/05/28 12:50:34;;;;;;;16.95;8.63;;;;;;;;;;5086065;28;20094;-67
2021/05/28 12:53:21;;;;;;;19.50;8.68;;;;;;;;;;5083566;28;20036;-67
2021/05/28 12:55:54;;;;;;;22.90;9.55;;;;;;;;;;5066398;28;20465;-67
2021/05/28 12:58:31;;;;;;;17.77;9.05;;;;;;;;;;5064872;28;20028;-67
2021/05/28 13:00:58;;;;;;;17.02;9.55;;;;;;;;;;5083627;28;20020;-68
2021/05/28 13:03:31;;;;;;;19.20;9.63;;;;;;;;;;5084429;28;20024;-67
2021/05/28 13:05:57;;;;;;;17.77;10.52;;;;;;;;;;5065886;28;20059;-66
2021/05/28 13:08:31;;;;;;;18.15;10.82;;;;;;;;;;5086004;28;20494;-68
2021/05/28 13:10:58;;;;;;;23.25;10.75;;;;;;;;;;5085281;28;20084;-67
2021/05/28 13:13:24;;;;;;;21.15;10.93;;;;;;;;;;5081702;28;20598;-67
2021/05/28 13:15:50;;;;;;;19.83;9.82;;;;;;;;;;5083017;28;20335;-67
2021/05/28 13:18:17;;;;;;;20.02;10.43;;;;;;;;;;5085180;28;20091;-67
2021/05/28 13:20:46;;;;;;;28.48;11.07;;;;;;;;;;5082681;28;20021;-67
2021/05/28 13:23:25;;;;;;;21.05;12.73;;;;;;;;;;5080284;28;20055;-67
2021/05/28 13:25:52;;;;;;;23.25;11.75;;;;;;;;;;5083300;28;20501;-66
2021/05/28 13:28:19;;;;;;;21.50;12.00;;;;;;;;;;5083636;28;20110;-66
2021/05/28 13:30:48;;;;;;;21.20;11.85;;;;;;;;;;5065803;28;20024;-67
2021/05/28 13:33:19;;;;;;;25.38;12.73;;;;;;;;;;5080021;28;20119;-66
2021/05/28 13:35:46;;;;;;;22.70;13.05;;;;;;;;;;5090771;28;20423;-67
2021/05/28 13:38:12;;;;;;;21.42;11.60;;;;;;;;;;5086246;28;20071;-67
2021/05/28 13:40:38;;;;;;;20.63;13.35;;;;;;;;;;5090027;28;20028;-67
2021/05/28 13:43:05;;;;;;;22.88;12.60;;;;;;;;;;5083141;28;20032;-70
2021/05/28 13:45:31;;;;;;;28.55;14.63;;;;;;;;;;5078597;28;20088;-67
2021/05/28 13:47:57;;;;;;;21.17;11.93;;;;;;;;;;5088431;28;20489;-67
2021/05/28 13:50:23;;;;;;;24.92;13.27;;;;;;;;;;5088374;28;20081;-67
2021/05/28 13:52:50;;;;;;;24.67;12.57;;;;;;;;;;5077591;28;20096;-66
2021/05/28 13:55:16;;;;;;;17.65;12.43;;;;;;;;;;5083344;28;20016;-67
2021/05/28 13:57:43;;;;;;;24.48;11.68;;;;;;;;;;5086195;28;20486;-67
2021/05/28 14:00:11;;;;;;;23.08;13.23;;;;;;;;;;5076350;28;20033;-66
2021/05/28 14:02:37;;;;;;;22.20;12.40;;;;;;;;;;5081271;28;20111;-67
2021/05/28 14:05:04;;;;;;;21.08;12.52;;;;;;;;;;5084243;28;20029;-67
2021/05/28 14:07:31;;;;;;;21.48;11.50;;;;;;;;;;5086323;28;20047;-67
2021/05/28 14:20:26;;;;;;;19.65;10.60;;;;;;;;;;5026770;28;20140;-67
2021/05/28 14:22:54;;;;;;;22.02;12.48;;;;;;;;;;5016670;28;20028;-67
2021/05/28 14:25:25;;;;;;;28.63;11.32;;;;;;;;;;5023678;28;20351;-67
2021/05/28 14:27:51;;;;;;;25.90;13.00;;;;;;;;;;5021756;28;20120;-68
2021/05/28 14:30:17;;;;;;;27.73;13.32;;;;;;;;;;5023149;28;20040;-67
2021/05/28 14:32:43;;;;;;;25.15;12.88;;;;;;;;;;5023670;28;20029;-68
2021/05/28 14:35:10;;;;;;;28.23;13.05;;;;;;;;;;5025575;28;20511;-67